sensor_id;sensor_type;location;lat;lon;timestamp;temperature;humidity
3592;DHT22;1810;48.720;9.094;2024-01-15T00:01:59;-0.80;99.90
3592;DHT22;1810;48.720;9.094;2024-01-15T00:04:27;-0.80;99.90
3592;DHT22;1810;48.720;9.094;2024-01-15T00:06:55;-0.60;99.90
3592;DHT22;1810;48.720;9.094;2024-01-15T00:09:24;-0.60;99.90
3592;DHT22;1810;48.720;9.094;2024-01-15T00:11:56;-0.60;99.90
3592;DHT22;1810;48.720;9.094;2024-01-15T00:14:24;-0.60;99.90
3592;DHT22;1810;48.720;9.094;2024-01-15T00:17:16;-0.70;99.90
3592;DHT22;1810;48.720;9.094;2024-01-15T00:20:08;-0.70;99.90
3592;DHT22;1810;48.720;9.094;2024-01-15T00:23:01;-0.70;99.90
3592;DHT22;1810;48.720;9.094;2024-01-15T00:25:29;-0.70;99.90
3592;DHT22;1810;48.720;9.094;2024-01-15T00:27:59;-0.80;99.90
3592;DHT22;1810;48.720;9.094;2024-01-15T00:30:27;-0.80;99.90
3592;DHT22;1810;48.720;9.094;2024-01-15T00:32:56;-0.90;99.90
3592;DHT22;1810;48.720;9.094;2024-01-15T00:35:24;-1.00;99.90
3592;DHT22;1810;48.720;9.094;2024-01-15T00:37:52;-1.00;99.90
3592;DHT22;1810;48.720;9.094;2024-01-15T00:40:21;-1.20;99.90
3592;DHT22;1810;48.720;9.094;2024-01-15T00:42:49;-1.20;99.90
3592;DHT22;1810;48.720;9.094;2024-01-15T00:45:19;-1.20;99.90
3592;DHT22;1810;48.720;9.094;2024-01-15T00:47:47;-1.20;99.90
3592;DHT22;1810;48.720;9.094;2024-01-15T00:50:16;-1.30;99.90
3592;DHT22;1810;48.720;9.094;2024-01-15T00:52:45;-1.20;99.90
3592;DHT22;1810;48.720;9.094;2024-01-15T00:55:13;-1.30;99.90
3592;DHT22;1810;48.720;9.094;2024-01-15T00:57:42;-1.20;99.90
3592;DHT22;1810;48.720;9.094;2024-01-15T01:00:11;-1.20;99.90
3592;DHT22;1810;48.720;9.094;2024-01-15T01:02:42;-1.10;99.90
3592;DHT22;1810;48.720;9.094;2024-01-15T01:05:10;-1.00;99.90
3592;DHT22;1810;48.720;9.094;2024-01-15T01:07:39;-0.90;99.90
3592;DHT22;1810;48.720;9.094;2024-01-15T01:10:08;-0.80;99.90
3592;DHT22;1810;48.720;9.094;2024-01-15T01:12:36;-0.80;99.90
3592;DHT22;1810;48.720;9.094;2024-01-15T01:15:05;-0.80;99.90
3592;DHT22;1810;48.720;9.094;2024-01-15T01:17:34;-0.70;99.90
3592;DHT22;1810;48.720;9.094;2024-01-15T01:20:07;-0.60;99.90
3592;DHT22;1810;48.720;9.094;2024-01-15T01:22:40;-0.70;99.90
3592;DHT22;1810;48.720;9.094;2024-01-15T01:25:08;-0.70;99.90
3592;DHT22;1810;48.720;9.094;2024-01-15T01:27:37;-0.70;99.90
3592;DHT22;1810;48.720;9.094;2024-01-15T01:30:06;-0.60;99.90
3592;DHT22;1810;48.720;9.094;2024-01-15T01:32:35;-0.70;99.90
3592;DHT22;1810;48.720;9.094;2024-01-15T01:35:07;-0.70;99.90
3592;DHT22;1810;48.720;9.094;2024-01-15T01:37:35;-0.70;99.90
3592;DHT22;1810;48.720;9.094;2024-01-15T01:40:04;-0.70;99.90
3592;DHT22;1810;48.720;9.094;2024-01-15T01:42:33;-0.70;99.90
3592;DHT22;1810;48.720;9.094;2024-01-15T01:45:02;-0.80;99.90
3592;DHT22;1810;48.720;9.094;2024-01-15T01:47:31;-0.80;99.90
3592;DHT22;1810;48.720;9.094;2024-01-15T01:50:00;-0.90;99.90
3592;DHT22;1810;48.720;9.094;2024-01-15T01:52:31;-0.90;99.90
3592;DHT22;1810;48.720;9.094;2024-01-15T01:55:00;-0.90;99.90
3592;DHT22;1810;48.720;9.094;2024-01-15T01:57:31;-0.80;99.90
3592;DHT22;1810;48.720;9.094;2024-01-15T02:00:02;-0.80;99.90
3592;DHT22;1810;48.720;9.094;2024-01-15T02:02:32;-0.90;99.90
3592;DHT22;1810;48.720;9.094;2024-01-15T02:05:25;-0.90;99.90
3592;DHT22;1810;48.720;9.094;2024-01-15T02:07:56;-0.90;99.90
3592;DHT22;1810;48.720;9.094;2024-01-15T02:10:24;-0.90;99.90
3592;DHT22;1810;48.720;9.094;2024-01-15T02:12:52;-0.90;99.90
3592;DHT22;1810;48.720;9.094;2024-01-15T02:15:21;-1.00;99.90
3592;DHT22;1810;48.720;9.094;2024-01-15T02:18:00;-0.90;99.90
3592;DHT22;1810;48.720;9.094;2024-01-15T02:20:30;-0.90;99.90
3592;DHT22;1810;48.720;9.094;2024-01-15T02:23:08;-0.90;99.90
3592;DHT22;1810;48.720;9.094;2024-01-15T02:25:40;-0.90;99.90
3592;DHT22;1810;48.720;9.094;2024-01-15T02:28:11;-0.90;99.90
3592;DHT22;1810;48.720;9.094;2024-01-15T02:30:41;-1.00;99.90
3592;DHT22;1810;48.720;9.094;2024-01-15T02:33:11;-1.00;99.90
3592;DHT22;1810;48.720;9.094;2024-01-15T02:35:40;-1.20;99.90
3592;DHT22;1810;48.720;9.094;2024-01-15T02:38:10;-1.20;99.90
3592;DHT22;1810;48.720;9.094;2024-01-15T02:40:39;-1.30;99.90
3592;DHT22;1810;48.720;9.094;2024-01-15T02:43:07;-1.30;99.90
3592;DHT22;1810;48.720;9.094;2024-01-15T02:45:37;-1.20;99.90
3592;DHT22;1810;48.720;9.094;2024-01-15T02:48:06;-1.30;99.90
3592;DHT22;1810;48.720;9.094;2024-01-15T02:50:34;-1.10;99.90
3592;DHT22;1810;48.720;9.094;2024-01-15T02:53:03;-1.00;99.90
3592;DHT22;1810;48.720;9.094;2024-01-15T02:55:33;-1.00;99.90
3592;DHT22;1810;48.720;9.094;2024-01-15T02:58:03;-1.00;99.90
3592;DHT22;1810;48.720;9.094;2024-01-15T03:00:32;-1.00;99.90
3592;DHT22;1810;48.720;9.094;2024-01-15T03:03:00;-1.10;99.90
3592;DHT22;1810;48.720;9.094;2024-01-15T03:05:29;-1.10;99.90
3592;DHT22;1810;48.720;9.094;2024-01-15T03:07:57;-1.10;99.90
3592;DHT22;1810;48.720;9.094;2024-01-15T03:10:26;-1.00;99.90
3592;DHT22;1810;48.720;9.094;2024-01-15T03:12:56;-1.10;99.90
3592;DHT22;1810;48.720;9.094;2024-01-15T03:15:25;-1.00;99.90
3592;DHT22;1810;48.720;9.094;2024-01-15T03:17:55;-1.00;99.90
3592;DHT22;1810;48.720;9.094;2024-01-15T03:20:23;-1.10;99.90
3592;DHT22;1810;48.720;9.094;2024-01-15T03:22:52;-1.10;99.90
3592;DHT22;1810;48.720;9.094;2024-01-15T03:25:20;-1.10;99.90
3592;DHT22;1810;48.720;9.094;2024-01-15T03:27:49;-1.10;99.90
3592;DHT22;1810;48.720;9.094;2024-01-15T03:30:18;-1.00;99.90
3592;DHT22;1810;48.720;9.094;2024-01-15T03:33:11;-0.90;99.90
3592;DHT22;1810;48.720;9.094;2024-01-15T03:35:39;-0.90;99.90
3592;DHT22;1810;48.720;9.094;2024-01-15T03:38:08;-0.80;99.90
3592;DHT22;1810;48.720;9.094;2024-01-15T03:40:36;-0.70;99.90
3592;DHT22;1810;48.720;9.094;2024-01-15T03:43:04;-0.70;99.90
3592;DHT22;1810;48.720;9.094;2024-01-15T03:45:34;-0.70;99.90
3592;DHT22;1810;48.720;9.094;2024-01-15T03:48:03;-0.60;99.90
3592;DHT22;1810;48.720;9.094;2024-01-15T03:50:33;-0.60;99.90
3592;DHT22;1810;48.720;9.094;2024-01-15T03:53:01;-0.60;99.90
3592;DHT22;1810;48.720;9.094;2024-01-15T03:55:29;-0.50;99.90
3592;DHT22;1810;48.720;9.094;2024-01-15T03:57:57;-0.60;99.90
3592;DHT22;1810;48.720;9.094;2024-01-15T04:00:26;-0.50;99.90
3592;DHT22;1810;48.720;9.094;2024-01-15T04:02:56;-0.40;99.90
3592;DHT22;1810;48.720;9.094;2024-01-15T04:05:24;-0.40;99.90
3592;DHT22;1810;48.720;9.094;2024-01-15T04:07:53;-0.30;99.90
3592;DHT22;1810;48.720;9.094;2024-01-15T04:10:21;-0.30;99.90
3592;DHT22;1810;48.720;9.094;2024-01-15T04:12:49;-0.20;99.90
3592;DHT22;1810;48.720;9.094;2024-01-15T04:15:18;-0.20;99.90
3592;DHT22;1810;48.720;9.094;2024-01-15T04:17:47;-0.20;99.90
3592;DHT22;1810;48.720;9.094;2024-01-15T04:20:17;-0.30;99.90
3592;DHT22;1810;48.720;9.094;2024-01-15T04:22:49;-0.20;99.90
3592;DHT22;1810;48.720;9.094;2024-01-15T04:25:18;-0.20;99.90
3592;DHT22;1810;48.720;9.094;2024-01-15T04:27:47;-0.20;99.90
3592;DHT22;1810;48.720;9.094;2024-01-15T08:02:03;-0.20;99.90
3592;DHT22;1810;48.720;9.094;2024-01-15T08:04:33;0.40;99.90
3592;DHT22;1810;48.720;9.094;2024-01-15T08:07:02;0.30;99.90
3592;DHT22;1810;48.720;9.094;2024-01-15T08:09:31;0.30;99.90
3592;DHT22;1810;48.720;9.094;2024-01-15T08:12:24;0.30;99.90
3592;DHT22;1810;48.720;9.094;2024-01-15T08:14:53;0.40;99.90
3592;DHT22;1810;48.720;9.094;2024-01-15T08:17:21;0.40;99.90
3592;DHT22;1810;48.720;9.094;2024-01-15T08:19:53;0.50;99.90
3592;DHT22;1810;48.720;9.094;2024-01-15T08:22:22;0.40;99.90
3592;DHT22;1810;48.720;9.094;2024-01-15T08:24:50;0.50;99.90
3592;DHT22;1810;48.720;9.094;2024-01-15T08:27:18;0.40;99.90
3592;DHT22;1810;48.720;9.094;2024-01-15T08:29:47;0.50;99.90
3592;DHT22;1810;48.720;9.094;2024-01-15T08:32:17;0.50;99.90
3592;DHT22;1810;48.720;9.094;2024-01-15T08:34:45;0.50;99.90
3592;DHT22;1810;48.720;9.094;2024-01-15T08:37:17;0.60;99.90
3592;DHT22;1810;48.720;9.094;2024-01-15T08:39:45;0.60;99.90
3592;DHT22;1810;48.720;9.094;2024-01-15T08:42:17;0.50;99.90
3592;DHT22;1810;48.720;9.094;2024-01-15T08:44:45;0.70;99.90
3592;DHT22;1810;48.720;9.094;2024-01-15T08:47:13;0.80;99.90
3592;DHT22;1810;48.720;9.094;2024-01-15T08:49:42;0.80;99.90
3592;DHT22;1810;48.720;9.094;2024-01-15T20:50:20;0.80;99.90
3592;DHT22;1810;48.720;9.094;2024-01-15T20:52:48;-0.60;99.90
3592;DHT22;1810;48.720;9.094;2024-01-15T20:55:16;-0.70;99.90
3592;DHT22;1810;48.720;9.094;2024-01-15T20:57:45;-0.60;99.90
3592;DHT22;1810;48.720;9.094;2024-01-15T21:00:13;-0.70;99.90
3592;DHT22;1810;48.720;9.094;2024-01-15T21:02:44;-0.60;99.90
3592;DHT22;1810;48.720;9.094;2024-01-15T21:05:12;-0.70;99.90
3592;DHT22;1810;48.720;9.094;2024-01-15T21:07:41;-0.70;99.90
3592;DHT22;1810;48.720;9.094;2024-01-15T21:10:10;-0.70;99.90
3592;DHT22;1810;48.720;9.094;2024-01-15T21:12:39;-0.80;99.90
3592;DHT22;1810;48.720;9.094;2024-01-15T21:15:08;-0.80;99.90
3592;DHT22;1810;48.720;9.094;2024-01-15T21:17:37;-0.70;99.90
3592;DHT22;1810;48.720;9.094;2024-01-15T21:20:08;-0.80;99.90
3592;DHT22;1810;48.720;9.094;2024-01-15T21:22:38;-0.80;99.90
3592;DHT22;1810;48.720;9.094;2024-01-15T21:25:07;-0.90;99.90
3592;DHT22;1810;48.720;9.094;2024-01-15T21:27:37;-0.90;99.90
3592;DHT22;1810;48.720;9.094;2024-01-15T21:30:08;-0.90;99.90
3592;DHT22;1810;48.720;9.094;2024-01-15T21:32:38;-0.90;99.90
3592;DHT22;1810;48.720;9.094;2024-01-15T21:35:09;-0.90;99.90
3592;DHT22;1810;48.720;9.094;2024-01-15T21:37:39;-0.90;99.90
3592;DHT22;1810;48.720;9.094;2024-01-15T21:40:08;-0.80;99.90
3592;DHT22;1810;48.720;9.094;2024-01-15T21:42:37;-0.90;99.90
3592;DHT22;1810;48.720;9.094;2024-01-15T21:45:07;-0.90;99.90
3592;DHT22;1810;48.720;9.094;2024-01-15T21:47:37;-0.90;99.90
3592;DHT22;1810;48.720;9.094;2024-01-15T21:50:06;-0.90;99.90
3592;DHT22;1810;48.720;9.094;2024-01-15T21:52:37;-0.80;99.90
3592;DHT22;1810;48.720;9.094;2024-01-15T21:55:07;-0.70;99.90
3592;DHT22;1810;48.720;9.094;2024-01-15T21:57:36;-0.70;99.90
3592;DHT22;1810;48.720;9.094;2024-01-15T22:00:05;-0.60;99.90
3592;DHT22;1810;48.720;9.094;2024-01-15T22:02:35;-0.60;99.90
3592;DHT22;1810;48.720;9.094;2024-01-15T22:05:08;-0.60;99.90
3592;DHT22;1810;48.720;9.094;2024-01-15T22:07:42;-0.60;99.90
3592;DHT22;1810;48.720;9.094;2024-01-15T22:10:11;-0.40;99.90
3592;DHT22;1810;48.720;9.094;2024-01-15T22:12:42;-0.30;99.90
3592;DHT22;1810;48.720;9.094;2024-01-15T22:15:11;-0.30;99.90
3592;DHT22;1810;48.720;9.094;2024-01-15T22:17:40;-0.30;99.90
3592;DHT22;1810;48.720;9.094;2024-01-15T22:20:10;-0.40;99.90
3592;DHT22;1810;48.720;9.094;2024-01-15T22:22:39;-0.40;99.90
3592;DHT22;1810;48.720;9.094;2024-01-15T22:25:08;-0.40;99.90
3592;DHT22;1810;48.720;9.094;2024-01-15T22:27:36;-0.30;99.90
3592;DHT22;1810;48.720;9.094;2024-01-15T22:30:05;-0.30;99.90
3592;DHT22;1810;48.720;9.094;2024-01-15T22:32:37;-0.20;99.90
3592;DHT22;1810;48.720;9.094;2024-01-15T22:35:07;-0.20;99.90
3592;DHT22;1810;48.720;9.094;2024-01-15T22:37:38;-0.30;99.90
3592;DHT22;1810;48.720;9.094;2024-01-15T22:40:08;-0.30;99.90
3592;DHT22;1810;48.720;9.094;2024-01-15T22:42:37;-0.40;99.90
3592;DHT22;1810;48.720;9.094;2024-01-15T22:45:06;-0.50;99.90
3592;DHT22;1810;48.720;9.094;2024-01-15T22:47:36;-0.40;99.90
3592;DHT22;1810;48.720;9.094;2024-01-15T22:50:05;-0.40;99.90
3592;DHT22;1810;48.720;9.094;2024-01-15T22:52:36;-0.50;99.90
3592;DHT22;1810;48.720;9.094;2024-01-15T22:55:06;-0.50;99.90
3592;DHT22;1810;48.720;9.094;2024-01-15T22:57:35;-0.50;99.90
3592;DHT22;1810;48.720;9.094;2024-01-15T23:00:05;-0.50;99.90
3592;DHT22;1810;48.720;9.094;2024-01-15T23:02:39;-0.50;99.90
3592;DHT22;1810;48.720;9.094;2024-01-15T23:05:08;-0.50;99.90
3592;DHT22;1810;48.720;9.094;2024-01-15T23:07:39;-0.60;99.90
3592;DHT22;1810;48.720;9.094;2024-01-15T23:10:08;-0.60;99.90
3592;DHT22;1810;48.720;9.094;2024-01-15T23:12:36;-0.70;99.90
3592;DHT22;1810;48.720;9.094;2024-01-15T23:15:06;-0.70;99.90
3592;DHT22;1810;48.720;9.094;2024-01-15T23:17:35;-0.70;99.90
3592;DHT22;1810;48.720;9.094;2024-01-15T23:20:06;-0.80;99.90
3592;DHT22;1810;48.720;9.094;2024-01-15T23:22:42;-0.70;99.90
3592;DHT22;1810;48.720;9.094;2024-01-15T23:25:10;-0.80;99.90
3592;DHT22;1810;48.720;9.094;2024-01-15T23:27:39;-0.70;99.90
3592;DHT22;1810;48.720;9.094;2024-01-15T23:30:08;-0.80;99.90
3592;DHT22;1810;48.720;9.094;2024-01-15T23:32:37;-0.70;99.90
3592;DHT22;1810;48.720;9.094;2024-01-15T23:35:06;-0.70;99.90
3592;DHT22;1810;48.720;9.094;2024-01-15T23:37:34;-0.50;99.90
3592;DHT22;1810;48.720;9.094;2024-01-15T23:40:05;-0.50;99.90
3592;DHT22;1810;48.720;9.094;2024-01-15T23:42:35;-0.50;99.90
3592;DHT22;1810;48.720;9.094;2024-01-15T23:45:04;-0.50;99.90
3592;DHT22;1810;48.720;9.094;2024-01-15T23:47:33;-0.50;99.90
3592;DHT22;1810;48.720;9.094;2024-01-15T23:50:03;-0.50;99.90
3592;DHT22;1810;48.720;9.094;2024-01-15T23:52:31;-0.40;99.90
3592;DHT22;1810;48.720;9.094;2024-01-15T23:54:59;-0.30;99.90
3592;DHT22;1810;48.720;9.094;2024-01-15T23:57:29;-0.30;99.90
3592;DHT22;1810;48.720;9.094;2024-01-15T23:59:57;-0.30;99.90
